Terminal Aerodrome Forecast
Issued by NWS

Home | Current Version | Previous Version | Text Only | Print | Product List | Glossary On
Versions: 1 2 3 4 5 6 7 8 9 10 11 12 13 14 15 16 17 18 19 20 21 22 23 24 25 26 27 28 29 30 31 32 33 34
000
FTUS41 KRNK 220301 AAA
TAFLWB
TAF AMD
KLWB 220301Z 2203/2224 02005KT P6SM SCT015 OVC035
     FM220400 00000KT P6SM SCT001 OVC025
     FM220600 00000KT 1SM BR SCT001 OVC015
     FM221200 00000KT P6SM SCT001 OVC008
     FM221500 12007KT 4SM -SHRA OVC015
     FM221700 12006KT P6SM OVC018=

USA.gov is the U.S. government's official web portal to all federal, state and local government web resources and services.